createdAt,value
2018-04-27T00:00:04.793Z,964.93
2018-04-27T00:15:04.802Z,965.06
2018-04-27T00:30:05.474Z,964.9
2018-04-27T00:45:05.101Z,964.87
2018-04-27T01:00:04.864Z,964.87
2018-04-27T01:15:05.391Z,965.12
2018-04-27T01:30:04.721Z,964.93
2018-04-27T01:45:05.422Z,958.17
2018-04-27T02:00:05.230Z,965.2
2018-04-27T02:15:04.923Z,957.63
2018-04-27T02:30:04.973Z,957.77
2018-04-27T02:45:04.746Z,957.5
2018-04-27T03:00:05.464Z,957.5
2018-04-27T03:15:04.449Z,958.96
2018-04-27T03:30:04.789Z,957.9
2018-04-27T03:45:05.472Z,957.82
2018-04-27T04:00:05.242Z,957.8
2018-04-27T04:15:04.721Z,957.77
2018-04-27T04:30:05.103Z,957.88
2018-04-27T04:45:05.271Z,957.88
2018-04-27T05:00:05.062Z,957.88
2018-04-27T05:15:04.812Z,957.63
2018-04-27T05:30:05.243Z,957.12
2018-04-27T05:45:05.643Z,956.1
2018-04-27T06:00:05.784Z,962.64
2018-04-27T06:15:04.898Z,962.12
2018-04-27T06:30:05.092Z,961.77
2018-04-27T06:45:05.131Z,960.98
2018-04-27T07:00:05.732Z,959.92
2018-04-27T07:15:05.122Z,959.02
2018-04-27T07:30:04.802Z,957.44
2018-04-27T07:45:05.060Z,956.06
2018-04-27T08:00:04.874Z,954.86
2018-04-27T08:15:10.279Z,960.44
2018-04-27T08:30:04.470Z,960
2018-04-27T08:45:10.314Z,958.49
2018-04-27T09:00:05.826Z,957.73
2018-04-27T09:15:05.184Z,957.2
2018-04-27T09:30:04.596Z,956.98
2018-04-27T09:45:05.242Z,956.49
2018-04-27T10:00:05.051Z,957.12
2018-04-27T10:15:05.442Z,957.23
2018-04-27T10:30:05.146Z,957.07
2018-04-27T10:45:05.300Z,957.37
2018-04-27T11:00:05.481Z,956.77
2018-04-27T11:15:04.913Z,957.09
2018-04-27T11:30:05.013Z,956.3
2018-04-27T11:45:04.797Z,956.22
2018-04-27T12:00:04.941Z,955.2
2018-04-27T12:15:04.887Z,955.64
2018-04-27T12:30:05.413Z,954.74
2018-04-27T12:45:05.488Z,954.65
2018-04-27T13:00:05.100Z,954.19
2018-04-27T13:15:04.677Z,954.52
2018-04-27T13:30:04.976Z,953.67
2018-04-27T13:45:04.828Z,953.23
2018-04-27T14:00:05.570Z,952.9
2018-04-27T14:15:04.523Z,952.51
2018-04-27T14:30:05.207Z,951.96
2018-04-27T14:45:04.762Z,951.77
2018-04-27T15:00:05.236Z,951.64
2018-04-27T15:15:04.696Z,951.31
2018-04-27T15:30:05.410Z,951.42
2018-04-27T15:45:04.541Z,951.64
2018-04-27T16:00:05.515Z,951.99
2018-04-27T16:15:05.010Z,951.88
2018-04-27T16:30:04.749Z,951.33
2018-04-27T16:45:05.073Z,951.77
2018-04-27T17:00:05.055Z,951.44
2018-04-27T17:15:06.084Z,951.58
2018-04-27T17:30:05.327Z,951.5
2018-04-27T17:45:05.352Z,951.85
2018-04-27T18:00:05.390Z,952.38
2018-04-27T18:15:05.196Z,952.95
2018-04-27T18:30:04.794Z,953.56
2018-04-27T18:45:04.729Z,954.05
2018-04-27T19:00:04.715Z,954.52
2018-04-27T19:15:04.674Z,955.2
2018-04-27T19:30:04.860Z,956.19
2018-04-27T19:45:05.348Z,956.46
2018-04-27T20:00:05.390Z,956.74
2018-04-27T20:15:05.350Z,957.2
2018-04-27T20:30:04.588Z,958.19
2018-04-27T20:45:04.569Z,957.89
2018-04-27T21:00:05.146Z,959.48
2018-04-27T21:15:04.739Z,960.3
2018-04-27T21:30:05.294Z,960.52
2018-04-27T21:45:05.293Z,960.55
2018-04-27T22:00:05.248Z,961.51
2018-04-27T22:15:05.179Z,955.54
2018-04-27T22:30:04.855Z,954.59
2018-04-27T22:45:04.848Z,956.14
2018-04-27T23:00:05.287Z,957.47
2018-04-27T23:15:04.802Z,956.6
2018-04-27T23:30:05.011Z,956.57
2018-04-27T23:45:04.967Z,957.47
